Albany, Indiana
Current Conditions -  °F | °C
As of 1:53 PM on Thursday 27 Nov 2014 (Local Time) from KMIE Reporting Station
Light Snow Light Snow  
Wind Chill: 19°   Ceiling: 1900
Heat Index: 30°   Visibility: 5mi
Dew Point: 23°   Wind: 16mph
Humidity: 75%   Direction: 290°WNW
Pressure: 30.27"   Gusts: 22mph
Location:  40.3°N, 85.24°W
Report Text: KMIE 271853Z 29014G19KT 5SM -SN BKN019 OVC025 M01/M05 A3027 RMK AO2 SLP258 P0000 T10111050
Loading
Personal Weather Stations






























Interactive Weather Map New forecast layout! Learn more

10-Day Weather Forecast

Advertisements
Track Severe Weather on mobile